Time;durP1;ratioP1;P1;durP2;ratioP2;P2;SDS_P1;SDS_P2;PMS_P1;PMS_P2;Temp;Humidity;BMP_temperature;BMP_pressure;BME280_temperature;BME280_humidity;BME280_pressure;Samples;Min_cycle;Max_cycle;Signal;HPM_P1;HPM_P2
2023/04/24 00:01:31;;;;;;;23.20;12.63;;;11.20;99.90;;;;;;7282884;19;20251;-78
2023/04/24 00:03:59;;;;;;;23.03;12.90;;;11.10;99.90;;;;;;7282070;19;20233;-78
2023/04/24 00:06:32;;;;;;;28.47;13.50;;;11.00;99.90;;;;;;7280511;19;20200;-78
2023/04/24 00:09:00;;;;;;;28.03;13.00;;;11.00;99.90;;;;;;7280196;19;20852;-78
2023/04/24 00:11:26;;;;;;;23.93;12.67;;;11.00;99.90;;;;;;7280002;19;20204;-78
2023/04/24 00:13:53;;;;;;;25.50;13.07;;;10.90;99.90;;;;;;7282471;19;20205;-77
2023/04/24 00:16:19;;;;;;;26.17;13.17;;;11.00;99.90;;;;;;7280077;19;20177;-77
2023/04/24 00:18:45;;;;;;;30.70;14.37;;;10.90;99.90;;;;;;7304093;19;20199;-78
2023/04/24 00:21:11;;;;;;;24.97;13.20;;;11.00;99.90;;;;;;7283553;19;20244;-78
2023/04/24 00:23:36;;;;;;;25.37;13.00;;;11.00;99.90;;;;;;7281293;19;25584;-78
2023/04/24 00:26:02;;;;;;;30.57;13.83;;;11.00;99.90;;;;;;7281457;19;20227;-78
2023/04/24 00:28:28;;;;;;;21.00;13.27;;;11.00;99.90;;;;;;7282488;19;20189;-78
2023/04/24 00:30:54;;;;;;;28.10;13.67;;;11.00;99.90;;;;;;7281388;19;20188;-77
2023/04/24 00:33:20;;;;;;;26.23;14.13;;;11.10;99.90;;;;;;7283097;19;20198;-77
2023/04/24 00:35:46;;;;;;;31.13;14.07;;;11.20;99.90;;;;;;7310690;19;20220;-78
2023/04/24 00:38:11;;;;;;;29.43;14.57;;;11.10;99.90;;;;;;7289712;19;20184;-78
2023/04/24 00:40:37;;;;;;;26.97;14.00;;;11.00;99.90;;;;;;7288847;19;20594;-78
2023/04/24 00:43:03;;;;;;;31.23;14.70;;;11.00;99.90;;;;;;7289169;19;20189;-78
2023/04/24 00:45:31;;;;;;;25.40;13.63;;;11.00;99.90;;;;;;7289898;19;20680;-78
2023/04/24 00:47:57;;;;;;;22.63;12.87;;;11.00;99.90;;;;;;7289386;19;20189;-78
2023/04/24 00:50:24;;;;;;;25.30;14.53;;;10.80;99.90;;;;;;7287623;19;20185;-78
2023/04/24 00:52:50;;;;;;;26.20;14.60;;;10.70;99.90;;;;;;7289280;19;20280;-78
2023/04/24 00:55:17;;;;;;;26.10;15.23;;;10.70;99.90;;;;;;7309713;19;20626;-78
2023/04/24 00:57:43;;;;;;;32.47;16.23;;;10.50;99.90;;;;;;7288613;19;20199;-78
2023/04/24 01:00:12;;;;;;;30.37;15.50;;;10.40;99.90;;;;;;7287513;19;20651;-78
2023/04/24 01:02:43;;;;;;;31.30;16.63;;;10.30;99.90;;;;;;7286775;19;20190;-78
2023/04/24 01:05:09;;;;;;;33.50;17.27;;;10.30;99.90;;;;;;7289038;19;20624;-78
2023/04/24 01:07:36;;;;;;;28.50;15.60;;;10.30;99.90;;;;;;7286568;19;20189;-78
2023/04/24 01:10:02;;;;;;;28.80;15.73;;;10.30;99.90;;;;;;7288248;19;20196;-78
2023/04/24 01:12:28;;;;;;;31.97;16.43;;;10.30;99.90;;;;;;7286925;19;20212;-78
2023/04/24 01:14:55;;;;;;;32.23;16.20;;;10.30;99.90;;;;;;7288232;19;20192;-78
2023/04/24 01:17:20;;;;;;;29.23;16.33;;;10.40;99.90;;;;;;7287934;19;20188;-78
2023/04/24 01:19:47;;;;;;;30.00;16.00;;;10.20;99.90;;;;;;7311019;19;20200;-78
2023/04/24 01:22:16;;;;;;;32.67;16.47;;;10.20;99.90;;;;;;7287809;19;20200;-78
2023/04/24 01:24:43;;;;;;;32.60;16.33;;;10.20;99.90;;;;;;7287602;19;20190;-79
2023/04/24 01:27:11;;;;;;;33.97;16.53;;;10.20;99.90;;;;;;7287014;19;20201;-78
2023/04/24 01:29:37;;;;;;;29.87;16.80;;;10.10;99.90;;;;;;7287560;19;21036;-78
2023/04/24 01:32:04;;;;;;;27.73;17.57;;;10.10;99.90;;;;;;7285974;19;20201;-78
2023/04/24 01:34:30;;;;;;;33.53;18.37;;;10.00;99.90;;;;;;7287358;19;20185;-79
2023/04/24 01:36:56;;;;;;;33.80;17.47;;;10.00;99.90;;;;;;7286842;19;20592;-78
2023/04/24 01:39:25;;;;;;;33.07;17.97;;;10.10;99.90;;;;;;7286430;19;20185;-78
2023/04/24 01:41:53;;;;;;;30.07;17.63;;;10.10;99.90;;;;;;7286352;19;20188;-78
2023/04/24 01:44:19;;;;;;;31.30;18.30;;;10.10;99.90;;;;;;7289443;19;20279;-78
2023/04/24 01:46:45;;;;;;;33.40;17.47;;;10.10;99.90;;;;;;7309263;19;20185;-78
2023/04/24 01:49:11;;;;;;;35.33;17.93;;;10.10;99.90;;;;;;7286904;19;20199;-79
2023/04/24 01:51:37;;;;;;;33.83;18.67;;;10.20;99.90;;;;;;7287095;19;20238;-78
2023/04/24 01:54:05;;;;;;;31.77;18.30;;;10.10;99.90;;;;;;7288627;19;20220;-78
2023/04/24 01:56:33;;;;;;;32.83;19.83;;;10.20;99.90;;;;;;7286157;19;20677;-78
2023/04/24 01:59:00;;;;;;;33.93;18.50;;;10.10;99.90;;;;;;7286436;19;20198;-78
2023/04/24 02:01:26;;;;;;;31.63;19.40;;;10.00;99.90;;;;;;7288009;19;20197;-79
2023/04/24 02:03:52;;;;;;;31.63;18.80;;;10.00;99.90;;;;;;7286986;19;20659;-78
2023/04/24 02:06:17;;;;;;;34.97;20.07;;;10.10;99.90;;;;;;7305081;19;20527;-76
2023/04/24 02:08:43;;;;;;;36.07;19.87;;;10.10;99.90;;;;;;7298393;19;20189;-78
2023/04/24 02:11:10;;;;;;;33.07;19.50;;;10.20;99.90;;;;;;7286078;19;20805;-78
2023/04/24 02:13:36;;;;;;;34.00;18.83;;;10.20;99.90;;;;;;7287889;19;20211;-78
2023/04/24 02:16:02;;;;;;;35.17;19.07;;;10.00;99.90;;;;;;7287938;19;20199;-78
2023/04/24 02:18:29;;;;;;;34.43;18.90;;;10.00;99.90;;;;;;7287564;19;20200;-78
2023/04/24 02:20:56;;;;;;;35.60;18.87;;;10.00;99.90;;;;;;7285642;19;20661;-78
2023/04/24 02:23:22;;;;;;;30.47;17.50;;;10.00;99.90;;;;;;7288098;19;20185;-78
2023/04/24 02:25:48;;;;;;;31.77;17.57;;;10.00;99.90;;;;;;7303678;19;20196;-76
2023/04/24 02:28:14;;;;;;;33.03;17.83;;;10.00;99.90;;;;;;7306933;19;20197;-79
2023/04/24 02:30:39;;;;;;;27.53;16.83;;;9.90;99.90;;;;;;7287254;19;20212;-78
2023/04/24 02:33:06;;;;;;;31.90;17.23;;;10.00;99.90;;;;;;7287646;19;20597;-79
2023/04/24 02:35:31;;;;;;;32.47;17.43;;;10.00;99.90;;;;;;7286739;19;20195;-78
2023/04/24 02:37:57;;;;;;;24.83;15.77;;;10.10;99.90;;;;;;7287933;19;20769;-78
2023/04/24 02:40:23;;;;;;;30.77;16.90;;;10.10;99.90;;;;;;7285173;19;20188;-78
2023/04/24 02:42:49;;;;;;;26.53;15.50;;;10.10;99.90;;;;;;7293818;19;20661;-77
2023/04/24 02:45:15;;;;;;;28.03;16.00;;;10.10;99.90;;;;;;7308008;19;20193;-78
2023/04/24 02:47:41;;;;;;;25.23;14.27;;;10.10;99.90;;;;;;7285741;19;20204;-78
2023/04/24 02:50:07;;;;;;;26.67;14.63;;;10.20;99.90;;;;;;7286330;19;20202;-78
2023/04/24 02:52:33;;;;;;;30.27;15.30;;;10.10;99.90;;;;;;7285438;19;20197;-78
2023/04/24 02:54:59;;;;;;;27.63;13.93;;;10.10;99.90;;;;;;7285711;19;20271;-78
2023/04/24 02:57:25;;;;;;;25.37;14.57;;;10.00;99.90;;;;;;7283362;19;20598;-78
2023/04/24 02:59:50;;;;;;;24.83;14.43;;;10.00;99.90;;;;;;7286026;19;20206;-78
2023/04/24 03:02:16;;;;;;;26.77;13.40;;;9.90;99.90;;;;;;7307919;19;20195;-78
2023/04/24 03:04:42;;;;;;;27.87;13.73;;;9.90;99.90;;;;;;7286552;19;20262;-78
2023/04/24 03:07:08;;;;;;;24.57;13.93;;;9.90;99.90;;;;;;7284434;19;20213;-80
2023/04/24 03:09:36;;;;;;;26.67;14.13;;;9.90;99.90;;;;;;7284011;19;20187;-78
2023/04/24 03:12:02;;;;;;;29.43;14.57;;;10.00;99.90;;;;;;7284406;19;20202;-79
2023/04/24 03:14:31;;;;;;;27.40;14.60;;;10.10;99.90;;;;;;7283751;19;20188;-80
2023/04/24 03:16:56;;;;;;;25.97;15.63;;;10.00;99.90;;;;;;7283305;19;20184;-79
2023/04/24 03:19:22;;;;;;;28.60;16.67;;;9.90;99.90;;;;;;7284156;19;20208;-79
2023/04/24 03:21:58;;;;;;;30.10;16.67;;;10.00;99.90;;;;;;7282941;19;20184;-79
2023/04/24 03:24:23;;;;;;;27.17;15.63;;;10.10;99.90;;;;;;7282326;19;20618;-79
2023/04/24 03:26:50;;;;;;;28.50;16.43;;;10.10;99.90;;;;;;7284797;19;20213;-79
2023/04/24 03:29:44;;;;;;;29.07;17.00;;;10.10;99.90;;;;;;7286180;19;20181;-79
2023/04/24 03:32:10;;;;;;;29.97;16.53;;;10.20;99.90;;;;;;7284323;19;20198;-79
2023/04/24 03:34:37;;;;;;;27.73;16.57;;;10.20;99.90;;;;;;7285362;19;20201;-79
2023/04/24 03:37:04;;;;;;;24.83;14.37;;;10.20;99.90;;;;;;7280105;19;20202;-79
2023/04/24 03:39:31;;;;;;;26.90;15.27;;;10.10;99.90;;;;;;7285025;19;20191;-79
2023/04/24 03:41:57;;;;;;;26.77;15.17;;;10.00;99.90;;;;;;7283902;19;20669;-79
2023/04/24 03:44:31;;;;;;;24.87;14.43;;;9.90;99.90;;;;;;7284667;19;20178;-79
2023/04/24 03:47:00;;;;;;;24.43;14.60;;;9.80;99.90;;;;;;7285441;19;20222;-79
2023/04/24 03:49:26;;;;;;;25.87;15.67;;;9.80;99.90;;;;;;7280394;19;20191;-79
2023/04/24 03:51:52;;;;;;;24.37;15.07;;;9.90;99.90;;;;;;7283942;19;20262;-79
2023/04/24 03:54:23;;;;;;;26.97;15.20;;;9.90;99.90;;;;;;7284864;19;20312;-79
2023/04/24 03:56:50;;;;;;;22.83;14.77;;;9.90;99.90;;;;;;7284170;19;20264;-79
2023/04/24 03:59:17;;;;;;;21.47;12.00;;;10.00;99.90;;;;;;7305370;19;20203;-79
2023/04/24 04:01:47;;;;;;;22.80;12.63;;;10.00;99.90;;;;;;7284915;19;20227;-78
2023/04/24 04:04:15;;;;;;;20.80;11.57;;;10.00;99.90;;;;;;7284836;19;20214;-79
2023/04/24 04:06:43;;;;;;;21.73;11.77;;;10.00;99.90;;;;;;7283154;19;20197;-79
2023/04/24 04:09:10;;;;;;;19.50;11.67;;;10.00;99.90;;;;;;7288610;19;20250;-78
2023/04/24 04:11:36;;;;;;;23.23;12.40;;;10.10;99.90;;;;;;7288863;19;20214;-79
2023/04/24 04:14:02;;;;;;;24.20;11.87;;;10.20;99.90;;;;;;7290753;19;20693;-79
2023/04/24 04:16:30;;;;;;;22.23;12.00;;;10.30;99.90;;;;;;7289094;19;20256;-79
2023/04/24 04:19:02;;;;;;;20.60;11.80;;;10.30;99.90;;;;;;7289798;19;20213;-79
2023/04/24 04:21:29;;;;;;;21.10;12.17;;;10.40;99.90;;;;;;7289102;19;20199;-78
2023/04/24 04:24:05;;;;;;;18.97;11.77;;;10.40;99.90;;;;;;7290933;19;20200;-78
2023/04/24 04:26:37;;;;;;;18.00;11.10;;;10.40;99.90;;;;;;7290463;19;20196;-81
2023/04/24 04:29:06;;;;;;;17.83;10.43;;;10.40;99.90;;;;;;7289725;19;20660;-79
2023/04/24 04:31:34;;;;;;;17.80;10.63;;;10.50;99.90;;;;;;7288608;19;20190;-79
2023/04/24 04:34:04;;;;;;;17.43;9.80;;;10.50;99.90;;;;;;7291010;19;20226;-78
2023/04/24 04:36:36;;;;;;;17.20;9.53;;;10.40;99.90;;;;;;7290612;19;20207;-79
2023/04/24 04:39:18;;;;;;;15.63;9.27;;;10.40;99.90;;;;;;7289155;19;20686;-80
2023/04/24 04:41:52;;;;;;;18.47;9.20;;;10.30;99.90;;;;;;7267490;19;20196;-80
2023/04/24 04:44:21;;;;;;;16.70;9.17;;;10.20;99.90;;;;;;7289220;19;20201;-78
2023/04/24 04:46:47;;;;;;;18.03;10.50;;;10.00;99.90;;;;;;7310937;19;20199;-79
2023/04/24 04:49:23;;;;;;;17.60;9.97;;;9.90;99.90;;;;;;7267644;19;20562;-78
2023/04/24 04:51:50;;;;;;;29.17;11.77;;;10.00;99.90;;;;;;7286841;19;20550;-77
2023/04/24 04:54:17;;;;;;;18.40;11.17;;;9.90;99.90;;;;;;7311078;19;20651;-79
2023/04/24 04:56:43;;;;;;;21.37;11.47;;;9.80;99.90;;;;;;7288296;19;20207;-78
2023/04/24 04:59:09;;;;;;;21.40;11.87;;;9.80;99.90;;;;;;7289513;19;20200;-79
2023/04/24 05:01:37;;;;;;;22.20;12.23;;;9.80;99.90;;;;;;7289417;19;20207;-79
2023/04/24 05:04:06;;;;;;;19.83;11.67;;;9.80;99.90;;;;;;7288825;19;20190;-78
2023/04/24 05:06:31;;;;;;;27.37;12.43;;;9.90;99.90;;;;;;7288292;19;20198;-79
2023/04/24 05:08:58;;;;;;;25.83;13.70;;;9.90;99.90;;;;;;7288038;19;20203;-79
2023/04/24 05:11:31;;;;;;;22.70;13.00;;;9.90;99.90;;;;;;7287835;19;20212;-79
2023/04/24 05:13:58;;;;;;;27.63;14.93;;;10.00;99.90;;;;;;7288501;19;20612;-77
2023/04/24 05:16:32;;;;;;;24.00;14.67;;;9.90;99.90;;;;;;7288234;19;20229;-78
2023/04/24 05:18:58;;;;;;;24.50;12.67;;;9.80;99.90;;;;;;7287787;19;20195;-78
2023/04/24 05:21:29;;;;;;;27.20;14.37;;;9.70;99.90;;;;;;7288471;19;20199;-79
2023/04/24 05:23:55;;;;;;;28.87;14.37;;;9.60;99.90;;;;;;7286771;19;20552;-79
2023/04/24 05:26:39;;;;;;;29.70;15.03;;;9.60;99.90;;;;;;7290162;19;20181;-79
2023/04/24 05:29:07;;;;;;;25.00;14.40;;;9.70;99.90;;;;;;7287982;19;20582;-79
2023/04/24 05:31:33;;;;;;;27.03;14.90;;;9.80;99.90;;;;;;7287637;19;20693;-79
2023/04/24 05:33:58;;;;;;;23.73;14.67;;;9.90;99.90;;;;;;7288650;19;20596;-78
2023/04/24 05:36:27;;;;;;;26.03;13.93;;;9.90;99.90;;;;;;7284858;19;20192;-79
2023/04/24 05:38:53;;;;;;;26.20;14.30;;;9.80;99.90;;;;;;7287880;19;20202;-79
2023/04/24 05:41:19;;;;;;;29.27;15.27;;;9.70;99.90;;;;;;7297330;19;20705;-79
2023/04/24 05:43:45;;;;;;;26.80;14.93;;;9.70;99.90;;;;;;7306871;19;20191;-80
2023/04/24 05:46:11;;;;;;;26.57;14.13;;;9.80;99.90;;;;;;7286930;19;20199;-81
2023/04/24 05:48:38;;;;;;;27.90;14.53;;;9.90;99.90;;;;;;7288056;19;20703;-81
2023/04/24 05:51:04;;;;;;;28.63;14.30;;;10.00;99.90;;;;;;7288483;19;20204;-82
2023/04/24 05:53:31;;;;;;;24.23;13.73;;;9.90;99.90;;;;;;7287595;19;20196;-81
2023/04/24 05:55:56;;;;;;;25.20;14.33;;;10.00;99.90;;;;;;7285992;19;20288;-80
2023/04/24 05:58:22;;;;;;;26.77;13.73;;;10.00;99.90;;;;;;7287320;19;20191;-80
2023/04/24 06:00:49;;;;;;;28.33;13.93;;;10.00;99.90;;;;;;7300179;19;20282;-81
2023/04/24 06:03:16;;;;;;;25.47;14.73;;;10.00;99.90;;;;;;7309549;19;20192;-81
2023/04/24 06:05:42;;;;;;;25.40;13.87;;;10.10;99.90;;;;;;7287811;19;20199;-81
2023/04/24 06:08:08;;;;;;;26.43;13.87;;;10.10;99.90;;;;;;7286918;19;21803;-81
2023/04/24 06:10:37;;;;;;;28.73;14.87;;;10.10;99.90;;;;;;7285877;19;20204;-81
2023/04/24 06:13:06;;;;;;;34.37;15.97;;;10.30;99.90;;;;;;7286284;19;20210;-82
2023/04/24 06:15:36;;;;;;;31.27;15.80;;;10.20;99.90;;;;;;7286302;19;20196;-82
2023/04/24 06:18:07;;;;;;;26.00;14.00;;;10.20;99.90;;;;;;7287125;19;20559;-82
2023/04/24 06:20:34;;;;;;;32.20;17.43;;;10.20;99.90;;;;;;7286796;19;20196;-82
2023/04/24 06:23:01;;;;;;;30.80;16.77;;;10.10;99.90;;;;;;7286519;19;20199;-81
2023/04/24 06:25:28;;;;;;;32.73;17.77;;;10.10;99.90;;;;;;7285093;19;20263;-81
2023/04/24 06:27:57;;;;;;;34.90;18.37;;;10.10;99.90;;;;;;7286788;19;20195;-81
2023/04/24 06:30:23;;;;;;;29.57;18.97;;;10.10;99.90;;;;;;7284144;19;20187;-80
2023/04/24 06:32:48;;;;;;;35.67;19.10;;;10.20;99.90;;;;;;7303832;19;20197;-80
2023/04/24 06:35:15;;;;;;;39.60;19.03;;;10.10;99.90;;;;;;7301677;19;20225;-81
2023/04/24 06:37:42;;;;;;;34.77;19.00;;;10.10;99.90;;;;;;7287290;19;20593;-82
2023/04/24 06:40:09;;;;;;;37.10;19.83;;;10.20;99.90;;;;;;7287405;19;20210;-81
2023/04/24 06:42:36;;;;;;;41.43;19.90;;;10.10;99.90;;;;;;7285297;19;20191;-81
2023/04/24 06:45:03;;;;;;;29.47;17.87;;;9.90;99.90;;;;;;7285525;19;20259;-81
2023/04/24 06:47:29;;;;;;;37.33;20.03;;;10.00;99.90;;;;;;7286637;19;20659;-81
2023/04/24 06:49:55;;;;;;;33.87;19.33;;;10.10;99.90;;;;;;7285621;19;20594;-81
2023/04/24 06:52:21;;;;;;;32.40;18.93;;;10.10;99.90;;;;;;7286136;19;20202;-80
2023/04/24 06:54:47;;;;;;;39.67;18.97;;;10.20;99.90;;;;;;7307141;19;20254;-81
2023/04/24 06:57:13;;;;;;;33.70;19.33;;;10.40;99.90;;;;;;7284928;19;20202;-82
2023/04/24 06:59:39;;;;;;;36.10;18.67;;;10.40;99.90;;;;;;7287013;19;20209;-81
2023/04/24 07:02:05;;;;;;;37.57;19.60;;;10.50;99.90;;;;;;7287099;19;20215;-80
2023/04/24 07:04:31;;;;;;;34.23;17.97;;;10.60;99.90;;;;;;7284830;19;20196;-81
2023/04/24 07:06:57;;;;;;;30.50;17.77;;;10.70;99.90;;;;;;7285837;19;20608;-81
2023/04/24 07:09:25;;;;;;;32.47;18.03;;;10.60;99.90;;;;;;7285912;19;20197;-80
2023/04/24 07:11:51;;;;;;;35.13;17.87;;;10.30;99.90;;;;;;7283841;19;20192;-80
2023/04/24 07:14:19;;;;;;;30.33;16.73;;;10.50;99.90;;;;;;7306106;19;20297;-81
2023/04/24 07:16:45;;;;;;;32.20;17.47;;;10.60;99.90;;;;;;7286710;19;20186;-81
2023/04/24 07:19:12;;;;;;;30.20;15.87;;;10.80;99.90;;;;;;7286138;19;20195;-81
2023/04/24 07:21:38;;;;;;;34.03;17.00;;;10.80;99.90;;;;;;7286647;19;20187;-81
2023/04/24 07:24:04;;;;;;;31.70;16.63;;;10.90;99.90;;;;;;7285515;19;20208;-81
2023/04/24 07:26:31;;;;;;;31.43;16.77;;;10.80;99.90;;;;;;7285556;19;20200;-81
2023/04/24 07:28:57;;;;;;;34.50;16.83;;;10.80;99.90;;;;;;7284990;19;20223;-81
2023/04/24 07:31:23;;;;;;;30.63;15.43;;;10.70;99.90;;;;;;7285182;19;20562;-81
2023/04/24 07:33:50;;;;;;;25.83;15.50;;;10.70;99.90;;;;;;7293647;19;20208;-80
2023/04/24 07:36:18;;;;;;;28.63;15.63;;;10.80;99.90;;;;;;7307920;19;20184;-81
2023/04/24 07:38:48;;;;;;;34.03;15.57;;;10.90;99.90;;;;;;7285580;19;20183;-80
2023/04/24 07:41:14;;;;;;;30.10;14.13;;;11.00;99.90;;;;;;7285507;19;20186;-81
2023/04/24 07:43:40;;;;;;;26.57;15.00;;;11.10;99.90;;;;;;7283699;19;20192;-80
2023/04/24 07:46:07;;;;;;;30.60;14.47;;;10.90;99.90;;;;;;7285736;19;20586;-81
2023/04/24 07:48:33;;;;;;;33.63;15.33;;;11.00;99.90;;;;;;7284274;19;20191;-80
2023/04/24 07:50:59;;;;;;;25.60;14.63;;;11.20;99.90;;;;;;7283661;19;20665;-82
2023/04/24 07:53:25;;;;;;;28.77;15.77;;;11.30;99.90;;;;;;7285041;19;20193;-81
2023/04/24 07:55:50;;;;;;;27.10;15.63;;;11.40;99.90;;;;;;7287179;19;20215;-82
2023/04/24 07:58:16;;;;;;;23.27;14.13;;;11.50;99.90;;;;;;7307908;19;20199;-81
2023/04/24 08:00:42;;;;;;;30.53;16.07;;;11.10;99.90;;;;;;7284689;19;20184;-81
2023/04/24 08:03:07;;;;;;;32.67;15.70;;;10.70;99.90;;;;;;7284882;19;20210;-82
2023/04/24 08:05:33;;;;;;;33.93;16.23;;;10.60;99.90;;;;;;7285391;19;20196;-80
2023/04/24 08:07:59;;;;;;;31.93;16.00;;;10.70;99.90;;;;;;7284754;19;20550;-80
2023/04/24 08:10:25;;;;;;;29.83;16.10;;;11.00;99.90;;;;;;7283781;19;20244;-80
2023/04/24 08:12:51;;;;;;;30.67;15.63;;;11.20;99.90;;;;;;7283614;19;20656;-79
2023/04/24 08:15:17;;;;;;;25.73;13.03;;;11.40;99.90;;;;;;7306177;19;20192;-82
2023/04/24 08:17:43;;;;;;;19.83;12.03;;;11.60;99.90;;;;;;7283680;19;20181;-81
2023/04/24 08:20:13;;;;;;;23.67;12.40;;;11.70;99.90;;;;;;7283589;19;20362;-82
2023/04/24 08:22:40;;;;;;;22.20;11.70;;;11.70;99.90;;;;;;7284165;19;20269;-82
2023/04/24 08:25:06;;;;;;;22.97;11.67;;;12.00;99.90;;;;;;7284556;19;20191;-81
2023/04/24 08:27:32;;;;;;;24.77;11.57;;;12.20;99.90;;;;;;7283730;19;20203;-81
2023/04/24 08:30:01;;;;;;;19.83;10.50;;;12.60;99.90;;;;;;7283264;19;20280;-81
2023/04/24 08:32:30;;;;;;;22.53;10.23;;;13.40;99.90;;;;;;7283932;19;20185;-82
2023/04/24 08:34:56;;;;;;;22.90;10.57;;;14.00;99.90;;;;;;7282471;19;20186;-82
2023/04/24 08:37:23;;;;;;;19.73;9.90;;;14.00;99.90;;;;;;7282762;19;20188;-80
2023/04/24 08:39:52;;;;;;;19.73;8.40;;;13.80;99.90;;;;;;7305768;19;20183;-78
2023/04/24 08:42:19;;;;;;;18.67;8.63;;;13.30;99.90;;;;;;7305462;19;20186;-80
2023/04/24 08:44:45;;;;;;;18.53;7.37;;;12.90;99.90;;;;;;7284501;19;20553;-81
2023/04/24 08:47:11;;;;;;;15.17;7.20;;;12.90;99.90;;;;;;7282117;19;20186;-81
2023/04/24 08:49:38;;;;;;;17.90;7.70;;;12.70;99.90;;;;;;7286074;19;20190;-81
2023/04/24 08:52:05;;;;;;;18.70;7.30;;;12.80;99.90;;;;;;7283884;19;20185;-81
2023/04/24 08:54:35;;;;;;;18.40;6.67;;;13.00;99.90;;;;;;7285557;19;20195;-80
2023/04/24 08:57:03;;;;;;;18.97;7.73;;;13.10;99.90;;;;;;7289483;19;20190;-80
2023/04/24 08:59:30;;;;;;;22.80;7.93;;;14.00;99.90;;;;;;7288757;19;20600;-80
2023/04/24 09:01:56;;;;;;;15.17;6.27;;;14.70;99.90;;;;;;7288234;19;20184;-80
2023/04/24 09:04:24;;;;;;;18.63;6.73;;;14.50;99.90;;;;;;7289132;19;20190;-80
2023/04/24 09:06:58;;;;;;;16.53;6.50;;;13.90;99.90;;;;;;7298541;19;20300;-79
2023/04/24 09:09:25;;;;;;;17.43;6.40;;;13.40;99.90;;;;;;7288225;19;20288;-80
2023/04/24 09:11:54;;;;;;;16.77;6.67;;;13.00;99.90;;;;;;7292967;19;20223;-80
2023/04/24 09:14:20;;;;;;;14.37;6.27;;;12.70;99.90;;;;;;7303169;19;20191;-80
2023/04/24 09:16:47;;;;;;;17.40;6.40;;;12.60;99.90;;;;;;7310904;19;20193;-81
2023/04/24 09:19:12;;;;;;;15.37;6.40;;;12.60;99.90;;;;;;7289316;19;20196;-81
2023/04/24 09:21:40;;;;;;;14.27;5.93;;;12.60;99.90;;;;;;7288827;19;20193;-81
2023/04/24 09:24:07;;;;;;;14.97;6.43;;;12.80;99.90;;;;;;7288239;19;20181;-81
2023/04/24 09:26:36;;;;;;;16.50;6.53;;;12.80;99.90;;;;;;7289309;19;20619;-81
2023/04/24 09:29:03;;;;;;;20.07;7.53;;;12.90;99.90;;;;;;7289598;19;20193;-81
2023/04/24 09:31:29;;;;;;;17.97;7.10;;;12.80;99.90;;;;;;7288490;19;20183;-81
2023/04/24 09:34:07;;;;;;;16.43;7.27;;;12.70;99.90;;;;;;7289140;19;20664;-80
2023/04/24 09:36:38;;;;;;;17.43;6.87;;;12.80;99.90;;;;;;7288051;19;20540;-81
2023/04/24 09:39:06;;;;;;;14.23;6.13;;;13.10;99.90;;;;;;7287466;19;20187;-81
2023/04/24 09:41:32;;;;;;;15.40;5.20;;;13.30;99.90;;;;;;7288428;19;20185;-81
2023/04/24 09:44:14;;;;;;;14.97;5.23;;;13.60;99.90;;;;;;7288363;19;20181;-81
2023/04/24 09:46:42;;;;;;;19.57;5.30;;;13.60;99.90;;;;;;7287668;19;20175;-81
2023/04/24 09:49:16;;;;;;;13.97;4.77;;;13.70;99.90;;;;;;7289433;19;20182;-80
2023/04/24 09:51:43;;;;;;;12.13;5.03;;;13.40;99.90;;;;;;7287352;19;20184;-81
2023/04/24 09:54:26;;;;;;;12.90;5.10;;;13.20;99.90;;;;;;7287484;19;20189;-81
2023/04/24 09:56:52;;;;;;;12.17;5.17;;;13.00;99.90;;;;;;7265313;19;20564;-81
2023/04/24 09:59:20;;;;;;;11.90;4.87;;;13.30;99.90;;;;;;7308909;19;20177;-81
2023/04/24 10:01:48;;;;;;;12.67;5.33;;;13.40;99.90;;;;;;7285902;19;20282;-81
2023/04/24 10:04:25;;;;;;;16.43;5.33;;;13.30;99.90;;;;;;7287602;19;20599;-82
2023/04/24 10:06:52;;;;;;;13.63;5.03;;;13.50;99.90;;;;;;7267177;19;20642;-81
2023/04/24 10:09:20;;;;;;;15.10;5.63;;;13.60;99.90;;;;;;7308312;19;20191;-81
2023/04/24 10:11:48;;;;;;;9.90;4.93;;;13.70;99.90;;;;;;7286440;19;20191;-81
2023/04/24 10:14:17;;;;;;;16.80;5.23;;;13.90;99.90;;;;;;7287565;19;20187;-81
2023/04/24 10:16:44;;;;;;;14.43;5.73;;;14.00;99.90;;;;;;7287667;19;20215;-81
2023/04/24 10:19:13;;;;;;;11.00;5.37;;;13.80;99.90;;;;;;7287244;19;20213;-82
2023/04/24 10:21:42;;;;;;;14.37;5.63;;;14.30;99.90;;;;;;7287329;19;20193;-81
2023/04/24 10:24:12;;;;;;;16.33;6.13;;;14.80;99.90;;;;;;7286204;19;20648;-81
2023/04/24 10:26:39;;;;;;;13.27;5.60;;;15.10;99.90;;;;;;7287635;19;20617;-80
2023/04/24 10:29:09;;;;;;;13.83;5.43;;;15.10;99.90;;;;;;7286883;19;20192;-80
2023/04/24 10:31:36;;;;;;;14.67;6.40;;;14.90;99.90;;;;;;7286184;19;20207;-80
2023/04/24 10:34:04;;;;;;;14.10;5.73;;;14.50;99.90;;;;;;7287211;19;20244;-80
2023/04/24 10:36:32;;;;;;;12.97;5.67;;;14.30;99.90;;;;;;7285353;19;20203;-81
2023/04/24 10:38:59;;;;;;;15.60;5.87;;;13.90;99.90;;;;;;7285012;19;20224;-81
2023/04/24 10:41:26;;;;;;;13.03;5.90;;;13.80;99.90;;;;;;7285942;19;20574;-81
2023/04/24 10:44:09;;;;;;;16.50;6.97;;;13.40;99.90;;;;;;7286912;19;20192;-80
2023/04/24 10:46:36;;;;;;;14.80;7.00;;;13.00;99.90;;;;;;7286818;19;20190;-81
2023/04/24 10:49:08;;;;;;;16.13;7.77;;;13.00;99.90;;;;;;7287006;19;20223;-81
2023/04/24 10:51:50;;;;;;;15.37;7.37;;;13.10;99.90;;;;;;7286349;19;20685;-81
2023/04/24 10:54:29;;;;;;;15.90;8.17;;;13.40;99.90;;;;;;7287143;19;20186;-81
2023/04/24 10:57:22;;;;;;;16.13;7.97;;;13.70;99.90;;;;;;7183754;19;2004704;-81
2023/04/24 10:59:50;;;;;;;18.10;8.70;;;14.50;99.90;;;;;;7286594;19;20656;-81
2023/04/24 11:02:17;;;;;;;18.47;9.43;;;14.60;99.90;;;;;;7286550;19;20201;-81
2023/04/24 11:04:46;;;;;;;18.87;9.17;;;14.30;99.90;;;;;;7285149;19;20883;-81
2023/04/24 11:07:12;;;;;;;17.13;9.30;;;14.70;99.90;;;;;;7286877;19;20259;-81
2023/04/24 11:09:40;;;;;;;17.87;9.13;;;14.80;99.90;;;;;;7284934;19;20191;-81
2023/04/24 11:12:10;;;;;;;15.87;8.70;;;15.20;99.90;;;;;;7284558;19;20203;-81
2023/04/24 11:14:56;;;;;;;16.93;8.93;;;15.30;99.90;;;;;;7285630;19;20211;-82
2023/04/24 11:17:33;;;;;;;16.13;8.73;;;15.00;99.90;;;;;;7261861;19;20682;-81
2023/04/24 11:20:09;;;;;;;17.00;9.60;;;14.60;99.90;;;;;;7287122;19;20183;-81
2023/04/24 11:22:36;;;;;;;16.20;9.30;;;14.10;99.90;;;;;;7287112;19;20215;-81
2023/04/24 11:25:04;;;;;;;18.13;9.27;;;14.20;99.90;;;;;;7286306;19;20184;-81
2023/04/24 11:27:38;;;;;;;14.73;9.20;;;14.30;99.90;;;;;;7285918;19;20192;-81
2023/04/24 11:30:05;;;;;;;19.13;9.00;;;14.10;99.90;;;;;;7285973;19;20215;-81
2023/04/24 11:32:33;;;;;;;15.87;8.17;;;13.90;99.90;;;;;;7285725;19;20188;-81
2023/04/24 11:35:16;;;;;;;18.23;8.87;;;13.80;99.90;;;;;;7284365;19;20556;-80
2023/04/24 11:37:45;;;;;;;13.10;9.00;;;13.70;99.90;;;;;;7286489;19;20244;-80
2023/04/24 11:40:15;;;;;;;19.47;9.77;;;14.00;99.90;;;;;;7285021;19;20188;-81
2023/04/24 11:42:45;;;;;;;18.37;10.00;;;14.30;99.90;;;;;;7284750;19;20191;-80
2023/04/24 11:45:16;;;;;;;18.27;10.57;;;14.60;99.90;;;;;;7284045;19;20257;-81
2023/04/24 11:47:43;;;;;;;18.30;9.60;;;15.00;99.90;;;;;;7285457;19;20538;-82
2023/04/24 11:50:12;;;;;;;16.20;9.67;;;15.20;99.90;;;;;;7285178;19;20210;-81
2023/04/24 11:52:40;;;;;;;14.30;9.53;;;15.40;99.90;;;;;;7285215;19;20239;-80
2023/04/24 11:55:26;;;;;;;17.60;9.87;;;15.50;99.90;;;;;;7283334;19;20191;-81
2023/04/24 11:57:57;;;;;;;13.87;9.70;;;15.20;99.90;;;;;;7263206;19;20189;-82
2023/04/24 12:00:24;;;;;;;16.47;10.10;;;15.50;99.90;;;;;;7283893;19;20231;-81
2023/04/24 12:02:51;;;;;;;17.07;9.47;;;15.80;99.90;;;;;;7296391;19;20193;-80
2023/04/24 12:05:21;;;;;;;15.30;8.73;;;16.40;99.90;;;;;;7311009;19;20282;-81
2023/04/24 12:07:46;;;;;;;17.83;9.23;;;16.70;99.90;;;;;;7284217;19;20193;-82
2023/04/24 12:10:12;;;;;;;19.20;8.97;;;17.10;99.90;;;;;;7282230;19;20560;-81
2023/04/24 12:12:38;;;;;;;15.63;8.83;;;17.60;99.90;;;;;;7283335;19;20196;-80
2023/04/24 12:15:08;;;;;;;14.00;8.00;;;18.20;99.90;;;;;;7284883;19;20555;-80
2023/04/24 12:17:36;;;;;;;14.23;8.47;;;17.80;99.90;;;;;;7283056;19;20186;-80
2023/04/24 12:20:07;;;;;;;15.53;8.80;;;17.00;99.90;;;;;;7283424;19;20259;-81
2023/04/24 12:22:56;;;;;;;15.63;8.13;;;16.60;99.90;;;;;;7284052;19;20207;-80
2023/04/24 12:25:24;;;;;;;15.90;7.63;;;17.10;99.90;;;;;;7261890;19;20196;-80
2023/04/24 12:28:12;;;;;;;15.57;7.93;;;17.40;99.90;;;;;;7303485;19;20203;-79
2023/04/24 12:30:48;;;;;;;16.13;8.37;;;16.90;99.90;;;;;;7286771;19;20195;-81
2023/04/24 12:33:19;;;;;;;16.17;8.77;;;16.00;99.90;;;;;;7290674;19;20181;-81
2023/04/24 12:35:45;;;;;;;17.17;8.67;;;16.00;99.90;;;;;;7291219;19;20189;-80